sensor_id;sensor_type;location;lat;lon;timestamp;pressure;altitude;pressure_sealevel;temperature;humidity
9141;BME280;46330;50.822;7.126;2023-05-19T00:00:46;101826.50;;;9.87;78.10
9141;BME280;46330;50.822;7.126;2023-05-19T00:03:18;101815.19;;;9.84;78.64
9141;BME280;46330;50.822;7.126;2023-05-19T00:05:48;101822.13;;;9.82;78.50
9141;BME280;46330;50.822;7.126;2023-05-19T00:08:17;101818.63;;;9.78;78.99
9141;BME280;46330;50.822;7.126;2023-05-19T00:10:46;101819.50;;;9.76;79.08
9141;BME280;46330;50.822;7.126;2023-05-19T00:13:15;101818.59;;;9.66;80.33
9141;BME280;46330;50.822;7.126;2023-05-19T00:15:43;101817.72;;;9.65;80.57
9141;BME280;46330;50.822;7.126;2023-05-19T00:18:11;101826.44;;;9.66;81.12
9141;BME280;46330;50.822;7.126;2023-05-19T00:20:41;101814.25;;;9.62;80.91
9141;BME280;46330;50.822;7.126;2023-05-19T00:23:10;101816.78;;;9.50;80.98
9141;BME280;46330;50.822;7.126;2023-05-19T00:25:38;101809.81;;;9.43;82.60
9141;BME280;46330;50.822;7.126;2023-05-19T00:28:06;101813.28;;;9.40;83.07
9141;BME280;46330;50.822;7.126;2023-05-19T00:30:34;101812.38;;;9.32;82.50
9141;BME280;46330;50.822;7.126;2023-05-19T00:33:02;101815.81;;;9.21;83.25
9141;BME280;46330;50.822;7.126;2023-05-19T00:35:30;101814.06;;;9.21;83.96
9141;BME280;46330;50.822;7.126;2023-05-19T00:37:59;101814.03;;;9.13;84.59
9141;BME280;46330;50.822;7.126;2023-05-19T00:40:28;101814.91;;;9.14;84.35
9141;BME280;46330;50.822;7.126;2023-05-19T00:42:59;101808.78;;;9.07;85.01
9141;BME280;46330;50.822;7.126;2023-05-19T00:45:27;101815.75;;;9.08;85.29
9141;BME280;46330;50.822;7.126;2023-05-19T00:47:55;101817.44;;;9.02;85.37
9141;BME280;46330;50.822;7.126;2023-05-19T00:50:23;101813.88;;;8.91;85.79
9141;BME280;46330;50.822;7.126;2023-05-19T00:52:53;101816.50;;;8.91;86.15
9141;BME280;46330;50.822;7.126;2023-05-19T00:55:25;101813.88;;;8.91;86.00
9141;BME280;46330;50.822;7.126;2023-05-19T00:57:54;101819.03;;;8.79;86.11
9141;BME280;46330;50.822;7.126;2023-05-19T01:00:23;101815.50;;;8.75;87.34
9141;BME280;46330;50.822;7.126;2023-05-19T01:02:51;101819.84;;;8.73;86.80
9141;BME280;46330;50.822;7.126;2023-05-19T01:05:19;101822.34;;;8.59;87.99
9141;BME280;46330;50.822;7.126;2023-05-19T01:07:48;101821.53;;;8.63;88.07
9141;BME280;46330;50.822;7.126;2023-05-19T01:10:19;101821.44;;;8.51;88.68
9141;BME280;46330;50.822;7.126;2023-05-19T01:12:48;101827.53;;;8.56;88.88
9141;BME280;46330;50.822;7.126;2023-05-19T01:15:18;101821.47;;;8.56;88.72
9141;BME280;46330;50.822;7.126;2023-05-19T01:17:51;101821.41;;;8.48;88.57
9141;BME280;46330;50.822;7.126;2023-05-19T01:20:25;101816.13;;;8.39;88.34
9141;BME280;46330;50.822;7.126;2023-05-19T01:23:13;101809.09;;;8.31;89.21
9141;BME280;46330;50.822;7.126;2023-05-19T01:26:15;101807.28;;;8.27;89.11
9141;BME280;46330;50.822;7.126;2023-05-19T01:29:05;101803.75;;;8.20;90.07
9141;BME280;46330;50.822;7.126;2023-05-19T01:31:37;101810.75;;;8.27;90.10
9141;BME280;46330;50.822;7.126;2023-05-19T01:34:05;101805.63;;;8.30;89.68
9141;BME280;46330;50.822;7.126;2023-05-19T01:36:35;101808.13;;;8.26;89.17
9141;BME280;46330;50.822;7.126;2023-05-19T01:39:05;101808.97;;;8.19;89.99
9141;BME280;46330;50.822;7.126;2023-05-19T01:41:33;101799.34;;;8.15;90.60
9141;BME280;46330;50.822;7.126;2023-05-19T01:44:02;101806.28;;;8.14;90.78
9141;BME280;46330;50.822;7.126;2023-05-19T01:46:30;101804.50;;;8.10;90.82
9141;BME280;46330;50.822;7.126;2023-05-19T01:49:00;101803.69;;;8.13;90.79
9141;BME280;46330;50.822;7.126;2023-05-19T01:51:28;101801.91;;;8.10;90.74
9141;BME280;46330;50.822;7.126;2023-05-19T01:53:57;101805.41;;;8.13;90.80
9141;BME280;46330;50.822;7.126;2023-05-19T01:56:33;101806.22;;;8.09;90.29
9141;BME280;46330;50.822;7.126;2023-05-19T01:59:17;101802.75;;;8.07;89.72
9141;BME280;46330;50.822;7.126;2023-05-19T02:01:52;101807.13;;;8.08;90.09
9141;BME280;46330;50.822;7.126;2023-05-19T02:04:29;101809.69;;;8.05;90.02
9141;BME280;46330;50.822;7.126;2023-05-19T02:07:12;101801.88;;;8.05;90.06
9141;BME280;46330;50.822;7.126;2023-05-19T02:09:51;101802.69;;;8.01;89.96
9141;BME280;46330;50.822;7.126;2023-05-19T02:12:26;101813.13;;;8.01;89.89
9141;BME280;46330;50.822;7.126;2023-05-19T02:15:04;101813.13;;;8.00;89.46
9141;BME280;46330;50.822;7.126;2023-05-19T02:17:36;101819.09;;;7.91;89.27
9141;BME280;46330;50.822;7.126;2023-05-19T02:20:10;101813.84;;;7.88;90.04
9141;BME280;46330;50.822;7.126;2023-05-19T02:22:38;101812.09;;;7.86;89.83
9141;BME280;46330;50.822;7.126;2023-05-19T02:25:07;101817.22;;;7.78;89.86
9141;BME280;46330;50.822;7.126;2023-05-19T02:27:37;101813.63;;;7.67;90.35
9141;BME280;46330;50.822;7.126;2023-05-19T02:30:06;101817.06;;;7.65;90.14
9141;BME280;46330;50.822;7.126;2023-05-19T02:32:35;101817.00;;;7.58;90.86
9141;BME280;46330;50.822;7.126;2023-05-19T02:35:05;101820.38;;;7.51;91.45
9141;BME280;46330;50.822;7.126;2023-05-19T02:37:35;101819.50;;;7.49;92.55
9141;BME280;46330;50.822;7.126;2023-05-19T02:40:03;101814.25;;;7.46;92.36
9141;BME280;46330;50.822;7.126;2023-05-19T02:42:32;101813.22;;;7.35;93.08
9141;BME280;46330;50.822;7.126;2023-05-19T02:45:00;101812.34;;;7.33;93.88
9141;BME280;46330;50.822;7.126;2023-05-19T02:47:28;101812.38;;;7.36;93.21
9141;BME280;46330;50.822;7.126;2023-05-19T02:49:56;101801.94;;;7.33;92.82
9141;BME280;46330;50.822;7.126;2023-05-19T02:52:24;101807.03;;;7.26;93.59
9141;BME280;46330;50.822;7.126;2023-05-19T02:54:54;101805.31;;;7.26;94.05
9141;BME280;46330;50.822;7.126;2023-05-19T02:57:21;101809.66;;;7.27;94.22
9141;BME280;46330;50.822;7.126;2023-05-19T02:59:50;101808.78;;;7.27;93.83
9141;BME280;46330;50.822;7.126;2023-05-19T03:02:17;101805.34;;;7.28;93.37
9141;BME280;46330;50.822;7.126;2023-05-19T03:04:46;101794.88;;;7.25;93.55
9141;BME280;46330;50.822;7.126;2023-05-19T03:07:14;101805.22;;;7.19;93.24
9141;BME280;46330;50.822;7.126;2023-05-19T03:09:42;101805.16;;;7.14;94.12
9141;BME280;46330;50.822;7.126;2023-05-19T03:12:11;101811.16;;;7.10;93.68
9141;BME280;46330;50.822;7.126;2023-05-19T03:14:39;101799.75;;;7.00;94.90
9141;BME280;46330;50.822;7.126;2023-05-19T03:17:07;101801.31;;;6.88;95.41
9141;BME280;46330;50.822;7.126;2023-05-19T03:19:36;101790.94;;;6.89;96.47
9141;BME280;46330;50.822;7.126;2023-05-19T03:22:04;101789.16;;;6.88;96.43
9141;BME280;46330;50.822;7.126;2023-05-19T03:24:33;101790.94;;;6.88;95.81
9141;BME280;46330;50.822;7.126;2023-05-19T03:27:02;101802.22;;;6.90;96.24
9141;BME280;46330;50.822;7.126;2023-05-19T03:29:33;101797.84;;;6.87;95.42
9141;BME280;46330;50.822;7.126;2023-05-19T03:32:02;101793.44;;;6.83;95.42
9141;BME280;46330;50.822;7.126;2023-05-19T03:34:30;101793.38;;;6.79;95.42
9141;BME280;46330;50.822;7.126;2023-05-19T03:36:59;101799.44;;;6.78;95.51
9141;BME280;46330;50.822;7.126;2023-05-19T03:39:27;101795.97;;;6.79;95.68
9141;BME280;46330;50.822;7.126;2023-05-19T03:41:56;101798.56;;;6.77;95.67
9141;BME280;46330;50.822;7.126;2023-05-19T03:44:24;101802.81;;;6.72;95.77
9141;BME280;46330;50.822;7.126;2023-05-19T03:46:54;101800.97;;;6.67;96.84
9141;BME280;46330;50.822;7.126;2023-05-19T03:49:41;101803.53;;;6.62;97.01
9141;BME280;46330;50.822;7.126;2023-05-19T03:52:29;101799.16;;;6.61;97.71
9141;BME280;46330;50.822;7.126;2023-05-19T03:55:06;101800.97;;;6.67;98.14
9141;BME280;46330;50.822;7.126;2023-05-19T03:57:34;101802.81;;;6.72;97.91
9141;BME280;46330;50.822;7.126;2023-05-19T04:00:04;101805.38;;;6.71;97.66
9141;BME280;46330;50.822;7.126;2023-05-19T04:02:39;101804.47;;;6.67;97.74
9141;BME280;46330;50.822;7.126;2023-05-19T04:05:08;101812.22;;;6.64;97.33
9141;BME280;46330;50.822;7.126;2023-05-19T04:07:36;101804.47;;;6.66;97.89
9141;BME280;46330;50.822;7.126;2023-05-19T04:10:05;101805.19;;;6.59;97.47
9141;BME280;46330;50.822;7.126;2023-05-19T04:12:34;101807.00;;;6.63;98.31
9141;BME280;46330;50.822;7.126;2023-05-19T04:15:02;101803.72;;;6.74;98.04
9141;BME280;46330;50.822;7.126;2023-05-19T04:17:31;101807.31;;;6.84;98.29
9141;BME280;46330;50.822;7.126;2023-05-19T04:20:01;101805.59;;;6.86;96.23
9141;BME280;46330;50.822;7.126;2023-05-19T04:22:30;101809.19;;;6.92;96.51
9141;BME280;46330;50.822;7.126;2023-05-19T04:24:58;101803.22;;;6.99;95.67
9141;BME280;46330;50.822;7.126;2023-05-19T04:27:27;101799.91;;;7.11;95.54
9141;BME280;46330;50.822;7.126;2023-05-19T04:29:58;101810.47;;;7.22;94.37
9141;BME280;46330;50.822;7.126;2023-05-19T04:32:26;101808.84;;;7.31;94.68
9141;BME280;46330;50.822;7.126;2023-05-19T04:34:56;101799.31;;;7.33;93.43
9141;BME280;46330;50.822;7.126;2023-05-19T04:37:28;101801.22;;;7.48;93.80
9141;BME280;46330;50.822;7.126;2023-05-19T04:39:57;101807.44;;;7.57;92.44
9141;BME280;46330;50.822;7.126;2023-05-19T04:42:26;101801.56;;;7.77;91.68
9141;BME280;46330;50.822;7.126;2023-05-19T04:44:59;101804.41;;;7.96;90.92
9141;BME280;46330;50.822;7.126;2023-05-19T04:47:29;101801.09;;;8.17;89.91
9141;BME280;46330;50.822;7.126;2023-05-19T04:50:03;101809.16;;;8.37;88.75
9141;BME280;46330;50.822;7.126;2023-05-19T04:52:33;101806.63;;;8.46;88.25
9141;BME280;46330;50.822;7.126;2023-05-19T04:55:03;101808.47;;;8.62;87.79
9141;BME280;46330;50.822;7.126;2023-05-19T04:57:32;101810.34;;;8.81;86.27
9141;BME280;46330;50.822;7.126;2023-05-19T05:00:00;101803.38;;;8.82;85.87
9141;BME280;46330;50.822;7.126;2023-05-19T05:02:36;101808.72;;;8.98;85.01
9141;BME280;46330;50.822;7.126;2023-05-19T05:05:06;101826.28;;;9.27;83.83
9141;BME280;46330;50.822;7.126;2023-05-19T05:07:36;101820.25;;;9.41;82.47
9141;BME280;46330;50.822;7.126;2023-05-19T05:10:06;101804.72;;;9.76;82.23
9141;BME280;46330;50.822;7.126;2023-05-19T05:12:35;101812.59;;;9.93;80.74
9141;BME280;46330;50.822;7.126;2023-05-19T05:15:05;101816.97;;;10.09;80.18
9141;BME280;46330;50.822;7.126;2023-05-19T05:17:34;101807.47;;;10.55;77.74
9141;BME280;46330;50.822;7.126;2023-05-19T05:20:05;101805.66;;;10.95;76.64
9141;BME280;46330;50.822;7.126;2023-05-19T05:22:35;101821.31;;;11.10;75.16
9141;BME280;46330;50.822;7.126;2023-05-19T05:25:07;101813.47;;;11.17;74.98
9141;BME280;46330;50.822;7.126;2023-05-19T05:27:36;101815.94;;;11.49;73.64
9141;BME280;46330;50.822;7.126;2023-05-19T05:30:07;101810.53;;;11.90;71.80
9141;BME280;46330;50.822;7.126;2023-05-19T05:32:36;101817.44;;;12.08;69.90
9141;BME280;46330;50.822;7.126;2023-05-19T05:35:11;101807.94;;;11.87;69.41
9141;BME280;46330;50.822;7.126;2023-05-19T05:37:40;101816.41;;;12.28;68.27
9141;BME280;46330;50.822;7.126;2023-05-19T05:40:09;101808.53;;;12.27;66.67
9141;BME280;46330;50.822;7.126;2023-05-19T05:42:38;101807.28;;;12.72;65.89
9141;BME280;46330;50.822;7.126;2023-05-19T05:45:08;101808.03;;;12.83;64.95
9141;BME280;46330;50.822;7.126;2023-05-19T05:47:36;101807.59;;;13.28;63.29
9141;BME280;46330;50.822;7.126;2023-05-19T05:50:08;101809.34;;;13.28;61.00
9141;BME280;46330;50.822;7.126;2023-05-19T05:52:37;101805.53;;;13.52;59.59
9141;BME280;46330;50.822;7.126;2023-05-19T05:55:10;101800.81;;;13.78;58.27
9141;BME280;46330;50.822;7.126;2023-05-19T05:57:38;101802.56;;;13.79;57.47
9141;BME280;46330;50.822;7.126;2023-05-19T06:00:09;101804.75;;;14.08;57.14
9141;BME280;46330;50.822;7.126;2023-05-19T06:02:42;101804.13;;;13.92;56.35
9141;BME280;46330;50.822;7.126;2023-05-19T06:05:10;101809.81;;;14.76;54.83
9141;BME280;46330;50.822;7.126;2023-05-19T06:07:41;101807.16;;;15.24;53.63
9141;BME280;46330;50.822;7.126;2023-05-19T06:10:12;101808.81;;;15.29;53.34
9141;BME280;46330;50.822;7.126;2023-05-19T06:12:40;101806.91;;;15.79;52.21
9141;BME280;46330;50.822;7.126;2023-05-19T06:15:10;101800.94;;;15.71;51.53
9141;BME280;46330;50.822;7.126;2023-05-19T06:17:57;101798.66;;;16.31;48.11
9141;BME280;46330;50.822;7.126;2023-05-19T06:20:26;101794.38;;;16.27;50.06
9141;BME280;46330;50.822;7.126;2023-05-19T06:22:55;101795.63;;;16.10;48.16
9141;BME280;46330;50.822;7.126;2023-05-19T06:25:28;101796.06;;;16.29;47.51
9141;BME280;46330;50.822;7.126;2023-05-19T06:27:57;101802.41;;;16.59;49.36
9141;BME280;46330;50.822;7.126;2023-05-19T06:30:26;101793.53;;;16.61;48.17
9141;BME280;46330;50.822;7.126;2023-05-19T06:33:05;101794.19;;;16.70;46.04
9141;BME280;46330;50.822;7.126;2023-05-19T06:35:33;101795.09;;;16.69;46.61
9141;BME280;46330;50.822;7.126;2023-05-19T06:38:01;101797.03;;;16.94;45.75
9141;BME280;46330;50.822;7.126;2023-05-19T06:40:31;101793.84;;;17.76;45.14
9141;BME280;46330;50.822;7.126;2023-05-19T06:42:59;101793.53;;;17.57;44.02
9141;BME280;46330;50.822;7.126;2023-05-19T06:45:47;101791.78;;;18.13;42.96
9141;BME280;46330;50.822;7.126;2023-05-19T06:48:15;101794.31;;;17.60;43.32
9141;BME280;46330;50.822;7.126;2023-05-19T06:50:43;101793.91;;;18.02;42.98
9141;BME280;46330;50.822;7.126;2023-05-19T06:53:12;101795.53;;;17.47;43.55
9141;BME280;46330;50.822;7.126;2023-05-19T06:55:41;101790.06;;;17.53;44.16
9141;BME280;46330;50.822;7.126;2023-05-19T06:58:26;101792.25;;;18.25;42.98
9141;BME280;46330;50.822;7.126;2023-05-19T07:00:55;101800.47;;;17.30;43.42
9141;BME280;46330;50.822;7.126;2023-05-19T07:03:27;101787.66;;;17.75;42.39
9141;BME280;46330;50.822;7.126;2023-05-19T07:05:57;101786.47;;;18.67;40.53
9141;BME280;46330;50.822;7.126;2023-05-19T07:08:26;101793.78;;;18.33;41.79
9141;BME280;46330;50.822;7.126;2023-05-19T07:10:56;101788.25;;;17.85;42.67
9141;BME280;46330;50.822;7.126;2023-05-19T07:13:24;101789.03;;;18.70;41.15
9141;BME280;46330;50.822;7.126;2023-05-19T07:15:54;101786.97;;;18.78;41.41
9141;BME280;46330;50.822;7.126;2023-05-19T07:18:24;101782.94;;;19.16;40.16
9141;BME280;46330;50.822;7.126;2023-05-19T07:20:52;101779.19;;;19.46;38.42
9141;BME280;46330;50.822;7.126;2023-05-19T07:23:20;101780.97;;;19.69;39.19
9141;BME280;46330;50.822;7.126;2023-05-19T07:25:48;101775.81;;;20.09;39.86
9141;BME280;46330;50.822;7.126;2023-05-19T07:28:18;101778.50;;;19.64;38.44
9141;BME280;46330;50.822;7.126;2023-05-19T07:30:46;101765.31;;;19.38;39.31
9141;BME280;46330;50.822;7.126;2023-05-19T07:33:15;101770.25;;;19.94;38.45
9141;BME280;46330;50.822;7.126;2023-05-19T07:35:43;101778.41;;;20.54;39.38
9141;BME280;46330;50.822;7.126;2023-05-19T07:38:11;101772.53;;;20.46;37.38
9141;BME280;46330;50.822;7.126;2023-05-19T07:40:39;101771.44;;;21.12;36.49
9141;BME280;46330;50.822;7.126;2023-05-19T07:43:07;101772.28;;;21.89;34.76
9141;BME280;46330;50.822;7.126;2023-05-19T07:45:38;101785.00;;;21.26;35.23
9141;BME280;46330;50.822;7.126;2023-05-19T07:48:06;101777.03;;;22.37;33.92
9141;BME280;46330;50.822;7.126;2023-05-19T07:50:34;101779.06;;;22.32;33.93
9141;BME280;46330;50.822;7.126;2023-05-19T07:53:02;101772.41;;;22.40;34.24
9141;BME280;46330;50.822;7.126;2023-05-19T07:55:30;101763.66;;;23.38;32.46
9141;BME280;46330;50.822;7.126;2023-05-19T07:57:58;101765.28;;;22.92;32.75
9141;BME280;46330;50.822;7.126;2023-05-19T08:00:26;101768.50;;;23.80;31.09
9141;BME280;46330;50.822;7.126;2023-05-19T08:02:56;101756.75;;;23.19;33.49
9141;BME280;46330;50.822;7.126;2023-05-19T08:05:24;101756.31;;;23.43;33.50
9141;BME280;46330;50.822;7.126;2023-05-19T08:07:52;101767.09;;;24.66;31.89
9141;BME280;46330;50.822;7.126;2023-05-19T08:10:20;101758.13;;;24.05;33.25
9141;BME280;46330;50.822;7.126;2023-05-19T08:12:48;101752.63;;;24.24;31.49
9141;BME280;46330;50.822;7.126;2023-05-19T08:15:16;101758.75;;;24.70;31.35
9141;BME280;46330;50.822;7.126;2023-05-19T08:17:44;101748.50;;;25.06;30.45
9141;BME280;46330;50.822;7.126;2023-05-19T08:20:13;101744.97;;;25.62;29.69
9141;BME280;46330;50.822;7.126;2023-05-19T08:22:41;101744.66;;;26.08;29.70
9141;BME280;46330;50.822;7.126;2023-05-19T08:25:09;101742.78;;;25.96;30.05
9141;BME280;46330;50.822;7.126;2023-05-19T08:27:37;101736.53;;;26.49;28.65
9141;BME280;46330;50.822;7.126;2023-05-19T08:30:06;101737.75;;;26.04;28.58
9141;BME280;46330;50.822;7.126;2023-05-19T08:32:34;101737.31;;;26.63;26.99
9141;BME280;46330;50.822;7.126;2023-05-19T08:35:02;101739.44;;;26.46;27.68
9141;BME280;46330;50.822;7.126;2023-05-19T08:37:32;101733.81;;;25.28;29.75
9141;BME280;46330;50.822;7.126;2023-05-19T08:40:03;101723.81;;;25.44;29.53
9141;BME280;46330;50.822;7.126;2023-05-19T08:42:31;101724.13;;;24.83;31.01
9141;BME280;46330;50.822;7.126;2023-05-19T08:45:00;101718.75;;;23.78;32.11
9141;BME280;46330;50.822;7.126;2023-05-19T08:47:28;101723.88;;;24.28;32.48
9141;BME280;46330;50.822;7.126;2023-05-19T08:50:00;101723.19;;;25.12;32.40
9141;BME280;46330;50.822;7.126;2023-05-19T08:52:42;101727.50;;;24.27;32.22
9141;BME280;46330;50.822;7.126;2023-05-19T08:55:23;101719.53;;;25.27;29.31
9141;BME280;46330;50.822;7.126;2023-05-19T08:57:55;101713.00;;;25.59;29.93
9141;BME280;46330;50.822;7.126;2023-05-19T09:00:23;101714.09;;;23.81;31.71
9141;BME280;46330;50.822;7.126;2023-05-19T09:02:52;101703.66;;;25.79;30.24
9141;BME280;46330;50.822;7.126;2023-05-19T09:05:32;101703.25;;;25.58;30.64
9141;BME280;46330;50.822;7.126;2023-05-19T09:08:02;101706.69;;;24.32;32.00
9141;BME280;46330;50.822;7.126;2023-05-19T09:10:31;101705.53;;;24.66;32.11
9141;BME280;46330;50.822;7.126;2023-05-19T09:12:59;101694.69;;;24.97;30.44
9141;BME280;46330;50.822;7.126;2023-05-19T09:15:27;101692.69;;;25.14;30.17
9141;BME280;46330;50.822;7.126;2023-05-19T09:18:07;101689.25;;;24.40;31.87
9141;BME280;46330;50.822;7.126;2023-05-19T09:20:36;101697.09;;;24.87;31.86
9141;BME280;46330;50.822;7.126;2023-05-19T09:23:11;101691.00;;;25.54;29.38
9141;BME280;46330;50.822;7.126;2023-05-19T09:25:46;101688.34;;;25.40;28.64
9141;BME280;46330;50.822;7.126;2023-05-19T09:28:22;101682.50;;;26.41;27.09
9141;BME280;46330;50.822;7.126;2023-05-19T09:30:58;101674.81;;;24.57;30.35
9141;BME280;46330;50.822;7.126;2023-05-19T09:33:26;101680.63;;;23.90;29.78
9141;BME280;46330;50.822;7.126;2023-05-19T09:35:54;101683.72;;;23.98;31.14
9141;BME280;46330;50.822;7.126;2023-05-19T09:38:24;101678.38;;;23.35;32.19
9141;BME280;46330;50.822;7.126;2023-05-19T09:40:54;101680.44;;;23.15;32.39
9141;BME280;46330;50.822;7.126;2023-05-19T09:43:23;101670.19;;;23.23;33.02
9141;BME280;46330;50.822;7.126;2023-05-19T09:45:54;101674.06;;;22.69;34.02
9141;BME280;46330;50.822;7.126;2023-05-19T09:48:25;101672.41;;;22.15;34.61
9141;BME280;46330;50.822;7.126;2023-05-19T09:50:53;101675.13;;;21.60;36.01
9141;BME280;46330;50.822;7.126;2023-05-19T09:53:24;101663.72;;;21.94;35.28
9141;BME280;46330;50.822;7.126;2023-05-19T09:55:54;101665.59;;;22.26;35.50
9141;BME280;46330;50.822;7.126;2023-05-19T09:58:23;101667.25;;;21.76;34.70
9141;BME280;46330;50.822;7.126;2023-05-19T10:00:52;101654.34;;;21.31;35.42
9141;BME280;46330;50.822;7.126;2023-05-19T10:03:21;101661.38;;;21.51;35.30
9141;BME280;46330;50.822;7.126;2023-05-19T10:05:52;101655.78;;;20.80;35.76
9141;BME280;46330;50.822;7.126;2023-05-19T10:08:21;101654.50;;;21.09;37.20
9141;BME280;46330;50.822;7.126;2023-05-19T10:10:51;101650.22;;;21.05;35.50
9141;BME280;46330;50.822;7.126;2023-05-19T10:13:20;101647.84;;;20.99;35.29
9141;BME280;46330;50.822;7.126;2023-05-19T10:15:48;101649.78;;;21.52;34.00
9141;BME280;46330;50.822;7.126;2023-05-19T10:18:21;101650.84;;;22.36;34.77
9141;BME280;46330;50.822;7.126;2023-05-19T10:20:51;101650.16;;;21.44;34.67
9141;BME280;46330;50.822;7.126;2023-05-19T10:23:19;101638.72;;;20.86;35.92
9141;BME280;46330;50.822;7.126;2023-05-19T10:25:48;101637.22;;;21.18;34.19
9141;BME280;46330;50.822;7.126;2023-05-19T10:28:21;101640.00;;;21.52;33.10
9141;BME280;46330;50.822;7.126;2023-05-19T10:30:53;101638.00;;;21.93;32.78
9141;BME280;46330;50.822;7.126;2023-05-19T10:33:31;101636.84;;;21.44;31.26
9141;BME280;46330;50.822;7.126;2023-05-19T10:36:24;101643.91;;;21.08;32.55
9141;BME280;46330;50.822;7.126;2023-05-19T10:38:59;101635.28;;;21.76;31.69
9141;BME280;46330;50.822;7.126;2023-05-19T10:41:37;101635.69;;;21.85;31.08
9141;BME280;46330;50.822;7.126;2023-05-19T10:44:19;101630.00;;;23.41;29.41
9141;BME280;46330;50.822;7.126;2023-05-19T10:46:50;101630.75;;;24.04;29.26
9141;BME280;46330;50.822;7.126;2023-05-19T10:49:21;101630.34;;;24.26;28.18
9141;BME280;46330;50.822;7.126;2023-05-19T10:51:51;101619.16;;;25.74;26.84
9141;BME280;46330;50.822;7.126;2023-05-19T10:54:39;101626.06;;;26.55;25.23
9141;BME280;46330;50.822;7.126;2023-05-19T10:57:13;101616.50;;;25.33;25.70
9141;BME280;46330;50.822;7.126;2023-05-19T10:59:43;101626.06;;;23.94;28.09
9141;BME280;46330;50.822;7.126;2023-05-19T11:02:37;101619.38;;;23.71;27.43
9141;BME280;46330;50.822;7.126;2023-05-19T11:05:07;101605.91;;;26.49;24.76
9141;BME280;46330;50.822;7.126;2023-05-19T11:07:36;101610.13;;;25.07;25.47
9141;BME280;46330;50.822;7.126;2023-05-19T11:10:05;101603.91;;;25.21;26.20
9141;BME280;46330;50.822;7.126;2023-05-19T11:12:40;101618.75;;;23.82;26.66
9141;BME280;46330;50.822;7.126;2023-05-19T11:15:13;101606.47;;;24.81;25.45
9141;BME280;46330;50.822;7.126;2023-05-19T11:17:44;101600.81;;;25.27;24.44
9141;BME280;46330;50.822;7.126;2023-05-19T11:20:21;101602.47;;;25.95;23.62
9141;BME280;46330;50.822;7.126;2023-05-19T11:23:04;101610.81;;;25.10;24.71
9141;BME280;46330;50.822;7.126;2023-05-19T11:25:43;101595.94;;;25.60;23.88
9141;BME280;46330;50.822;7.126;2023-05-19T11:28:14;101600.94;;;26.81;24.93
9141;BME280;46330;50.822;7.126;2023-05-19T11:30:46;101604.81;;;26.90;23.25
9141;BME280;46330;50.822;7.126;2023-05-19T11:33:16;101601.22;;;25.47;24.08
9141;BME280;46330;50.822;7.126;2023-05-19T11:35:46;101594.78;;;24.82;25.54
9141;BME280;46330;50.822;7.126;2023-05-19T11:38:16;101597.72;;;24.92;25.45
9141;BME280;46330;50.822;7.126;2023-05-19T11:40:48;101588.97;;;25.17;24.42
9141;BME280;46330;50.822;7.126;2023-05-19T11:43:21;101591.88;;;24.43;25.88
9141;BME280;46330;50.822;7.126;2023-05-19T11:45:52;101583.13;;;25.65;24.18
9141;BME280;46330;50.822;7.126;2023-05-19T11:48:20;101584.19;;;26.65;25.17
9141;BME280;46330;50.822;7.126;2023-05-19T11:50:49;101586.84;;;26.14;22.31
9141;BME280;46330;50.822;7.126;2023-05-19T11:53:18;101576.94;;;27.98;22.62
9141;BME280;46330;50.822;7.126;2023-05-19T11:55:47;101569.38;;;26.34;21.94
9141;BME280;46330;50.822;7.126;2023-05-19T11:58:15;101565.06;;;27.18;24.84
9141;BME280;46330;50.822;7.126;2023-05-19T12:00:44;101560.25;;;27.71;21.83
9141;BME280;46330;50.822;7.126;2023-05-19T12:03:14;101561.41;;;27.19;23.56
9141;BME280;46330;50.822;7.126;2023-05-19T12:05:48;101557.16;;;26.43;24.48
9141;BME280;46330;50.822;7.126;2023-05-19T12:08:16;101563.88;;;25.32;25.25
9141;BME280;46330;50.822;7.126;2023-05-19T12:10:47;101555.34;;;25.12;25.15
9141;BME280;46330;50.822;7.126;2023-05-19T12:13:16;101555.00;;;24.62;27.87
9141;BME280;46330;50.822;7.126;2023-05-19T12:15:43;101558.50;;;24.06;27.79
9141;BME280;46330;50.822;7.126;2023-05-19T12:18:12;101542.06;;;25.64;25.71
9141;BME280;46330;50.822;7.126;2023-05-19T12:20:42;101537.06;;;26.61;25.22
9141;BME280;46330;50.822;7.126;2023-05-19T12:23:11;101537.78;;;26.76;25.54
9141;BME280;46330;50.822;7.126;2023-05-19T12:25:40;101545.88;;;26.50;26.88
9141;BME280;46330;50.822;7.126;2023-05-19T12:28:08;101541.56;;;27.46;27.36
9141;BME280;46330;50.822;7.126;2023-05-19T12:30:37;101524.09;;;26.55;24.01
9141;BME280;46330;50.822;7.126;2023-05-19T12:33:05;101530.38;;;26.66;24.65
9141;BME280;46330;50.822;7.126;2023-05-19T12:35:36;101532.03;;;26.18;24.64
9141;BME280;46330;50.822;7.126;2023-05-19T12:38:05;101530.06;;;25.83;24.46
9141;BME280;46330;50.822;7.126;2023-05-19T12:40:34;101531.34;;;25.64;25.74
9141;BME280;46330;50.822;7.126;2023-05-19T12:43:04;101526.41;;;25.71;25.05
9141;BME280;46330;50.822;7.126;2023-05-19T12:45:33;101521.19;;;24.75;25.14
9141;BME280;46330;50.822;7.126;2023-05-19T12:48:03;101521.38;;;25.79;25.79
9141;BME280;46330;50.822;7.126;2023-05-19T12:50:32;101514.59;;;25.07;26.09
9141;BME280;46330;50.822;7.126;2023-05-19T12:53:01;101511.88;;;25.22;26.51
9141;BME280;46330;50.822;7.126;2023-05-19T12:55:37;101520.47;;;22.96;27.81
9141;BME280;46330;50.822;7.126;2023-05-19T12:58:06;101521.53;;;23.98;26.70
9141;BME280;46330;50.822;7.126;2023-05-19T13:00:39;101525.28;;;24.38;25.25
9141;BME280;46330;50.822;7.126;2023-05-19T13:03:09;101521.00;;;25.32;24.82
9141;BME280;46330;50.822;7.126;2023-05-19T13:05:43;101516.69;;;26.46;23.78
9141;BME280;46330;50.822;7.126;2023-05-19T13:08:13;101519.88;;;26.13;24.58
9141;BME280;46330;50.822;7.126;2023-05-19T13:10:44;101511.91;;;27.11;22.54
9141;BME280;46330;50.822;7.126;2023-05-19T13:13:12;101502.75;;;27.13;22.64
9141;BME280;46330;50.822;7.126;2023-05-19T13:15:41;101499.00;;;26.92;24.80
9141;BME280;46330;50.822;7.126;2023-05-19T13:18:11;101492.72;;;26.68;24.23
9141;BME280;46330;50.822;7.126;2023-05-19T13:20:40;101498.66;;;26.35;24.24
9141;BME280;46330;50.822;7.126;2023-05-19T13:23:09;101492.97;;;27.60;22.12